Time;durP1;ratioP1;P1;durP2;ratioP2;P2;SDS_P1;SDS_P2;PMS_P1;PMS_P2;Temp;Humidity;BMP_temperature;BMP_pressure;BME280_temperature;BME280_humidity;BME280_pressure;Samples;Min_cycle;Max_cycle;Signal;HPM_P1;HPM_P2
2021/07/08 00:00:27;;;;;;;2.05;1.95;;;;;;;;;;5135839;27;20201;-67
2021/07/08 00:02:55;;;;;;;3.70;2.10;;;;;;;;;;5133696;27;20646;-66
2021/07/08 00:05:27;;;;;;;2.25;1.92;;;;;;;;;;5133718;27;20234;-67
2021/07/08 00:07:57;;;;;;;4.22;2.10;;;;;;;;;;5134008;27;20543;-66
2021/07/08 00:10:29;;;;;;;2.30;2.10;;;;;;;;;;5133523;27;20238;-66
2021/07/08 00:12:57;;;;;;;6.88;2.30;;;;;;;;;;5133546;27;20225;-67
2021/07/08 00:15:28;;;;;;;2.63;2.17;;;;;;;;;;5133305;27;20201;-66
2021/07/08 00:17:56;;;;;;;2.65;2.10;;;;;;;;;;5134018;27;20596;-66
2021/07/08 00:20:26;;;;;;;1.98;1.80;;;;;;;;;;5133677;27;20289;-65
2021/07/08 00:22:55;;;;;;;2.33;2.00;;;;;;;;;;5133690;28;20297;-65
2021/07/08 00:25:24;;;;;;;2.17;2.03;;;;;;;;;;5133457;28;20199;-66
2021/07/08 00:27:53;;;;;;;3.38;1.90;;;;;;;;;;5133066;28;20293;-65
2021/07/08 00:30:22;;;;;;;3.47;2.35;;;;;;;;;;5133460;28;20222;-67
2021/07/08 00:32:51;;;;;;;2.40;2.20;;;;;;;;;;5133386;28;20637;-66
2021/07/08 00:35:23;;;;;;;3.13;2.30;;;;;;;;;;5133750;28;20194;-66
2021/07/08 00:37:51;;;;;;;3.45;2.38;;;;;;;;;;5133577;28;20202;-65
2021/07/08 00:40:20;;;;;;;2.97;2.67;;;;;;;;;;5136446;27;20281;-67
2021/07/08 00:42:49;;;;;;;2.65;2.25;;;;;;;;;;5137139;27;20290;-65
2021/07/08 00:45:20;;;;;;;3.38;2.45;;;;;;;;;;5137866;27;20299;-65
2021/07/08 00:47:49;;;;;;;3.58;2.25;;;;;;;;;;5137774;27;20202;-66
2021/07/08 00:50:17;;;;;;;2.70;2.47;;;;;;;;;;5137980;27;20305;-66
2021/07/08 00:52:46;;;;;;;3.15;2.15;;;;;;;;;;5137465;27;20223;-65
2021/07/08 00:55:15;;;;;;;3.08;2.67;;;;;;;;;;5137523;27;20206;-66
2021/07/08 00:57:52;;;;;;;2.85;2.53;;;;;;;;;;5137137;27;20245;-67
2021/07/08 01:00:21;;;;;;;4.60;2.60;;;;;;;;;;5136836;27;20790;-66
2021/07/08 01:02:50;;;;;;;4.60;2.30;;;;;;;;;;5137186;27;20644;-66
2021/07/08 01:05:20;;;;;;;2.78;2.40;;;;;;;;;;5137373;27;20545;-67
2021/07/08 01:07:48;;;;;;;3.38;2.42;;;;;;;;;;5137271;27;20201;-66
2021/07/08 01:10:16;;;;;;;4.18;2.70;;;;;;;;;;5137203;27;20199;-66
2021/07/08 01:12:46;;;;;;;3.78;2.92;;;;;;;;;;5136639;27;20669;-66
2021/07/08 01:15:15;;;;;;;3.53;2.50;;;;;;;;;;5136870;27;20194;-66
2021/07/08 01:17:44;;;;;;;3.95;2.58;;;;;;;;;;5137153;27;20226;-66
2021/07/08 01:20:13;;;;;;;3.30;2.47;;;;;;;;;;5136641;27;20630;-65
2021/07/08 01:22:43;;;;;;;3.35;2.40;;;;;;;;;;5136742;27;20647;-66
2021/07/08 01:25:12;;;;;;;4.32;2.30;;;;;;;;;;5136630;27;20203;-66
2021/07/08 01:27:40;;;;;;;4.25;2.65;;;;;;;;;;5136697;27;20205;-66
2021/07/08 01:30:10;;;;;;;3.17;2.40;;;;;;;;;;5136674;27;20199;-66
2021/07/08 01:32:38;;;;;;;4.13;2.70;;;;;;;;;;5136765;27;20221;-66
2021/07/08 01:35:08;;;;;;;2.80;2.60;;;;;;;;;;5136744;27;20285;-65
2021/07/08 01:37:37;;;;;;;2.90;2.60;;;;;;;;;;5136212;27;20717;-65
2021/07/08 01:40:07;;;;;;;3.35;2.90;;;;;;;;;;5136743;27;20206;-66
2021/07/08 01:42:36;;;;;;;2.88;2.67;;;;;;;;;;5136012;27;20215;-66
2021/07/08 01:45:04;;;;;;;2.78;2.50;;;;;;;;;;5117106;27;20211;-66
2021/07/08 01:47:32;;;;;;;4.28;3.13;;;;;;;;;;5116019;28;20196;-65
2021/07/08 01:50:01;;;;;;;3.33;3.03;;;;;;;;;;5122536;27;20233;-66
2021/07/08 01:52:29;;;;;;;4.28;2.92;;;;;;;;;;5135547;27;20230;-65
2021/07/08 01:54:58;;;;;;;3.95;2.83;;;;;;;;;;5136350;27;20203;-66
2021/07/08 01:57:27;;;;;;;3.42;3.13;;;;;;;;;;5136299;27;20198;-66
2021/07/08 01:59:55;;;;;;;12.20;3.00;;;;;;;;;;5135997;27;20205;-66
2021/07/08 02:02:23;;;;;;;4.40;2.78;;;;;;;;;;5136106;27;20203;-66
2021/07/08 02:04:52;;;;;;;4.13;3.17;;;;;;;;;;5136198;27;20297;-66
2021/07/08 02:07:20;;;;;;;4.18;2.83;;;;;;;;;;5136170;27;20205;-65
2021/07/08 02:09:48;;;;;;;4.15;3.05;;;;;;;;;;5136058;27;20293;-65
2021/07/08 02:12:17;;;;;;;3.97;3.25;;;;;;;;;;5135781;27;20198;-66
2021/07/08 02:14:46;;;;;;;4.30;2.90;;;;;;;;;;5135685;27;20229;-65
2021/07/08 02:17:14;;;;;;;4.53;3.28;;;;;;;;;;5135896;27;20623;-65
2021/07/08 02:19:43;;;;;;;4.20;3.08;;;;;;;;;;5135918;27;20285;-67
2021/07/08 02:22:11;;;;;;;4.22;2.97;;;;;;;;;;5135597;27;20244;-66
2021/07/08 02:24:39;;;;;;;3.67;2.90;;;;;;;;;;5135865;27;20201;-66
2021/07/08 02:27:08;;;;;;;3.80;3.30;;;;;;;;;;5135816;27;20198;-66
2021/07/08 02:29:36;;;;;;;3.47;3.00;;;;;;;;;;5135929;27;20198;-66
2021/07/08 02:32:07;;;;;;;6.10;3.28;;;;;;;;;;5135541;27;20208;-66
2021/07/08 02:34:36;;;;;;;3.33;2.70;;;;;;;;;;5135087;27;20541;-66
2021/07/08 02:37:05;;;;;;;3.50;3.20;;;;;;;;;;5135633;27;20204;-66
2021/07/08 02:39:33;;;;;;;4.85;3.35;;;;;;;;;;5135534;27;20273;-66
2021/07/08 02:42:01;;;;;;;3.50;3.20;;;;;;;;;;5135785;27;20205;-66
2021/07/08 02:44:30;;;;;;;4.53;3.00;;;;;;;;;;5135401;27;20245;-67
2021/07/08 02:46:58;;;;;;;5.28;3.30;;;;;;;;;;5135154;27;20584;-66
2021/07/08 02:49:28;;;;;;;5.03;3.28;;;;;;;;;;5135056;27;20198;-65
2021/07/08 02:51:56;;;;;;;4.68;3.45;;;;;;;;;;5135252;27;20201;-67
2021/07/08 02:54:24;;;;;;;5.25;3.22;;;;;;;;;;5135309;27;20219;-66
2021/07/08 02:56:52;;;;;;;3.53;2.90;;;;;;;;;;5135246;27;20198;-68
2021/07/08 02:59:20;;;;;;;4.03;3.10;;;;;;;;;;5135210;27;20199;-65
2021/07/08 03:01:49;;;;;;;5.88;3.13;;;;;;;;;;5134810;27;20217;-66
2021/07/08 03:04:17;;;;;;;4.40;3.30;;;;;;;;;;5135147;27;20195;-65
2021/07/08 03:06:47;;;;;;;5.07;3.25;;;;;;;;;;5135247;27;20260;-66
2021/07/08 03:09:15;;;;;;;6.43;3.10;;;;;;;;;;5134993;27;20202;-66
2021/07/08 03:11:43;;;;;;;4.70;3.13;;;;;;;;;;5134974;27;20201;-66
2021/07/08 03:14:11;;;;;;;5.22;3.58;;;;;;;;;;5134581;27;20249;-65
2021/07/08 03:16:40;;;;;;;4.10;3.80;;;;;;;;;;5134639;27;20195;-66
2021/07/08 03:19:08;;;;;;;5.20;3.30;;;;;;;;;;5134699;27;20205;-65
2021/07/08 03:21:37;;;;;;;4.32;2.92;;;;;;;;;;5134400;27;20203;-66
2021/07/08 03:24:07;;;;;;;5.88;3.75;;;;;;;;;;5135004;27;20293;-66
2021/07/08 03:26:35;;;;;;;6.50;3.80;;;;;;;;;;5134338;27;20670;-66
2021/07/08 03:29:03;;;;;;;4.75;3.42;;;;;;;;;;5134709;27;20199;-67
2021/07/08 03:31:32;;;;;;;3.88;3.35;;;;;;;;;;5134464;27;20290;-66
2021/07/08 03:34:00;;;;;;;6.70;4.22;;;;;;;;;;5134322;27;20242;-66
2021/07/08 03:36:28;;;;;;;3.90;3.20;;;;;;;;;;5134449;27;20223;-66
2021/07/08 03:38:57;;;;;;;6.45;3.33;;;;;;;;;;5127014;27;20290;-66
2021/07/08 03:41:26;;;;;;;4.55;3.45;;;;;;;;;;5113452;28;20195;-65
2021/07/08 03:43:54;;;;;;;5.07;3.50;;;;;;;;;;5122913;27;20286;-65
2021/07/08 03:46:22;;;;;;;6.53;3.70;;;;;;;;;;5134304;27;20203;-66
2021/07/08 03:48:51;;;;;;;5.60;3.58;;;;;;;;;;5133950;27;20648;-65
2021/07/08 03:51:19;;;;;;;6.28;3.80;;;;;;;;;;5133507;27;20598;-65
2021/07/08 03:53:47;;;;;;;6.35;3.95;;;;;;;;;;5134236;27;20326;-67
2021/07/08 03:56:15;;;;;;;4.50;4.10;;;;;;;;;;5134177;27;20290;-67
2021/07/08 03:58:45;;;;;;;5.20;3.65;;;;;;;;;;5134177;27;20202;-65
2021/07/08 04:01:13;;;;;;;4.50;4.10;;;;;;;;;;5133930;27;20289;-67
2021/07/08 04:03:41;;;;;;;7.68;3.70;;;;;;;;;;5134022;27;20207;-65
2021/07/08 04:06:10;;;;;;;6.60;3.78;;;;;;;;;;5133681;27;20290;-67
2021/07/08 04:08:38;;;;;;;7.38;3.90;;;;;;;;;;5133871;27;20205;-66
2021/07/08 04:11:07;;;;;;;5.93;4.25;;;;;;;;;;5133949;27;20205;-66
2021/07/08 04:13:35;;;;;;;5.63;3.83;;;;;;;;;;5133222;27;20290;-66
2021/07/08 04:16:05;;;;;;;6.05;3.88;;;;;;;;;;5133680;27;20722;-66
2021/07/08 04:18:33;;;;;;;7.95;3.50;;;;;;;;;;5133436;27;20203;-66
2021/07/08 04:21:01;;;;;;;7.82;3.80;;;;;;;;;;5133862;28;20248;-65
2021/07/08 04:23:29;;;;;;;4.45;3.80;;;;;;;;;;5133685;28;20198;-66
2021/07/08 04:25:58;;;;;;;7.03;3.72;;;;;;;;;;5133948;28;20199;-67
2021/07/08 04:28:26;;;;;;;8.95;4.28;;;;;;;;;;5133786;28;20248;-67
2021/07/08 04:30:54;;;;;;;8.35;3.60;;;;;;;;;;5133630;28;20222;-66
2021/07/08 04:33:24;;;;;;;8.88;4.18;;;;;;;;;;5133695;28;20210;-66
2021/07/08 04:35:52;;;;;;;5.13;3.85;;;;;;;;;;5133557;28;20305;-65
2021/07/08 04:38:21;;;;;;;10.07;3.88;;;;;;;;;;5133765;28;20214;-66
2021/07/08 04:40:50;;;;;;;6.25;3.90;;;;;;;;;;5140214;28;20306;-65
2021/07/08 04:43:18;;;;;;;6.50;4.22;;;;;;;;;;5138923;28;20627;-66
2021/07/08 04:45:46;;;;;;;7.35;4.30;;;;;;;;;;5138133;28;20230;-66
2021/07/08 04:48:15;;;;;;;5.85;4.13;;;;;;;;;;5133747;28;20297;-66
2021/07/08 04:50:44;;;;;;;7.35;4.38;;;;;;;;;;5133229;28;20237;-65
2021/07/08 04:53:16;;;;;;;4.47;4.03;;;;;;;;;;5133025;28;20290;-65
2021/07/08 04:55:44;;;;;;;8.23;4.65;;;;;;;;;;5133079;28;20207;-66
2021/07/08 04:58:12;;;;;;;6.35;4.43;;;;;;;;;;5132742;28;20732;-66
2021/07/08 05:00:41;;;;;;;6.80;4.72;;;;;;;;;;5133198;28;20198;-66
2021/07/08 05:03:10;;;;;;;8.23;4.78;;;;;;;;;;5133445;28;20218;-66
2021/07/08 05:05:39;;;;;;;6.10;4.40;;;;;;;;;;5133559;28;20281;-66
2021/07/08 05:08:08;;;;;;;11.80;4.97;;;;;;;;;;5133269;28;20576;-66
2021/07/08 05:10:37;;;;;;;10.07;5.03;;;;;;;;;;5133007;28;20219;-67
2021/07/08 05:13:05;;;;;;;8.27;4.35;;;;;;;;;;5132963;28;20194;-67
2021/07/08 05:15:35;;;;;;;6.72;4.20;;;;;;;;;;5133167;28;20309;-67
2021/07/08 05:18:04;;;;;;;10.02;4.65;;;;;;;;;;5133309;28;20187;-67
2021/07/08 05:20:32;;;;;;;7.88;3.60;;;;;;;;;;5133455;28;20258;-66
2021/07/08 05:23:02;;;;;;;10.05;4.47;;;;;;;;;;5133286;28;20198;-66
2021/07/08 05:25:32;;;;;;;7.80;4.38;;;;;;;;;;5134605;27;20229;-66
2021/07/08 05:28:00;;;;;;;9.07;4.10;;;;;;;;;;5137117;27;20194;-66
2021/07/08 05:30:28;;;;;;;8.57;4.38;;;;;;;;;;5137177;27;20225;-66
2021/07/08 05:32:57;;;;;;;8.93;4.53;;;;;;;;;;5137122;27;20204;-67
2021/07/08 05:35:25;;;;;;;12.43;5.15;;;;;;;;;;5137287;27;20314;-67
2021/07/08 05:37:53;;;;;;;7.65;4.20;;;;;;;;;;5136680;27;20689;-65
2021/07/08 05:40:22;;;;;;;7.25;4.15;;;;;;;;;;5136915;27;20289;-66
2021/07/08 05:42:51;;;;;;;11.68;4.40;;;;;;;;;;5136630;27;20244;-66
2021/07/08 05:45:21;;;;;;;9.25;4.43;;;;;;;;;;5136358;27;20201;-65
2021/07/08 05:47:49;;;;;;;10.27;4.30;;;;;;;;;;5136532;27;20240;-66
2021/07/08 05:50:18;;;;;;;5.88;4.30;;;;;;;;;;5136225;27;20551;-66
2021/07/08 05:52:47;;;;;;;7.25;4.70;;;;;;;;;;5136138;27;20655;-67
2021/07/08 05:55:16;;;;;;;6.65;4.15;;;;;;;;;;5136114;27;20214;-66
2021/07/08 05:57:50;;;;;;;10.52;4.80;;;;;;;;;;5136230;27;20199;-66
2021/07/08 06:00:21;;;;;;;6.07;4.47;;;;;;;;;;5136168;27;20203;-66
2021/07/08 06:02:49;;;;;;;7.25;4.30;;;;;;;;;;5135832;27;20214;-66
2021/07/08 06:05:18;;;;;;;8.00;4.57;;;;;;;;;;5135464;27;20302;-66
2021/07/08 06:07:47;;;;;;;8.82;5.00;;;;;;;;;;5135397;27;20199;-66
2021/07/08 06:10:16;;;;;;;9.02;4.43;;;;;;;;;;5135663;27;20216;-66
2021/07/08 06:12:46;;;;;;;8.93;4.28;;;;;;;;;;5135345;27;20290;-66
2021/07/08 06:15:16;;;;;;;12.82;4.40;;;;;;;;;;5135550;27;20214;-66
2021/07/08 06:17:45;;;;;;;7.72;4.47;;;;;;;;;;5135612;27;20745;-66
2021/07/08 06:20:15;;;;;;;4.40;3.72;;;;;;;;;;5135551;27;20289;-66
2021/07/08 06:22:43;;;;;;;8.80;4.10;;;;;;;;;;5135843;27;20199;-66
2021/07/08 06:25:12;;;;;;;7.78;4.75;;;;;;;;;;5135531;27;20235;-66
2021/07/08 06:27:41;;;;;;;8.48;4.13;;;;;;;;;;5135257;27;20212;-67
2021/07/08 06:30:09;;;;;;;7.13;4.50;;;;;;;;;;5135529;27;20679;-67
2021/07/08 06:32:38;;;;;;;7.10;3.92;;;;;;;;;;5135583;27;20294;-66
2021/07/08 06:35:08;;;;;;;7.38;4.50;;;;;;;;;;5135148;27;20678;-66
2021/07/08 06:37:37;;;;;;;6.35;3.70;;;;;;;;;;5134612;27;20179;-67
2021/07/08 06:40:05;;;;;;;5.30;3.53;;;;;;;;;;5134970;27;20205;-66
2021/07/08 06:42:34;;;;;;;6.38;3.67;;;;;;;;;;5134946;27;20194;-66
2021/07/08 06:45:03;;;;;;;7.90;4.60;;;;;;;;;;5134975;27;20309;-66
2021/07/08 06:47:38;;;;;;;7.30;4.35;;;;;;;;;;5135266;27;20209;-67
2021/07/08 06:50:08;;;;;;;6.35;3.67;;;;;;;;;;5135181;27;20261;-65
2021/07/08 06:52:36;;;;;;;5.20;3.70;;;;;;;;;;5135159;27;20230;-66
2021/07/08 06:55:05;;;;;;;6.55;3.80;;;;;;;;;;5134743;27;20289;-65
2021/07/08 06:57:34;;;;;;;5.60;3.90;;;;;;;;;;5135081;27;20199;-66
2021/07/08 07:00:02;;;;;;;6.60;3.85;;;;;;;;;;5134939;27;20286;-65
2021/07/08 07:02:30;;;;;;;8.13;4.60;;;;;;;;;;5134800;27;20198;-66
2021/07/08 07:04:59;;;;;;;5.18;3.60;;;;;;;;;;5134623;27;20658;-67
2021/07/08 07:07:28;;;;;;;6.00;3.80;;;;;;;;;;5134522;27;20195;-66
2021/07/08 07:09:56;;;;;;;4.47;3.65;;;;;;;;;;5134383;27;20301;-66
2021/07/08 07:12:24;;;;;;;5.60;3.80;;;;;;;;;;5134422;27;20294;-66
2021/07/08 07:14:53;;;;;;;5.43;4.05;;;;;;;;;;5134529;27;20206;-65
2021/07/08 07:17:21;;;;;;;4.18;3.83;;;;;;;;;;5132731;27;20215;-67
2021/07/08 07:19:49;;;;;;;6.55;3.80;;;;;;;;;;5113832;28;20340;-66
2021/07/08 07:22:17;;;;;;;6.35;3.90;;;;;;;;;;5114017;28;20299;-66
2021/07/08 07:24:50;;;;;;;5.55;4.18;;;;;;;;;;5113391;28;20670;-66
2021/07/08 07:27:18;;;;;;;6.45;3.88;;;;;;;;;;5113818;28;20730;-66
2021/07/08 07:29:46;;;;;;;6.28;3.78;;;;;;;;;;5113619;28;20647;-66
2021/07/08 07:32:15;;;;;;;5.10;4.60;;;;;;;;;;5113740;28;20199;-66
2021/07/08 07:34:43;;;;;;;5.45;4.10;;;;;;;;;;5117447;27;20198;-66
2021/07/08 07:37:11;;;;;;;5.20;3.80;;;;;;;;;;5133550;27;20301;-66
2021/07/08 07:39:39;;;;;;;9.25;4.13;;;;;;;;;;5132922;27;20750;-65
2021/07/08 07:42:09;;;;;;;6.07;3.70;;;;;;;;;;5133347;27;20677;-65
2021/07/08 07:44:43;;;;;;;4.68;4.05;;;;;;;;;;5133441;27;20237;-67
2021/07/08 07:47:11;;;;;;;6.07;3.90;;;;;;;;;;5131078;27;20190;-66
2021/07/08 07:49:39;;;;;;;6.07;3.63;;;;;;;;;;5132154;27;20310;-65
2021/07/08 07:52:08;;;;;;;5.97;3.67;;;;;;;;;;5133051;27;20522;-67
2021/07/08 07:54:36;;;;;;;7.30;4.07;;;;;;;;;;5133010;27;20283;-66
2021/07/08 07:57:08;;;;;;;7.85;4.53;;;;;;;;;;5133259;27;20264;-66
2021/07/08 07:59:38;;;;;;;5.95;4.30;;;;;;;;;;5133207;27;20194;-67
2021/07/08 08:02:10;;;;;;;6.75;4.57;;;;;;;;;;5132507;27;20283;-66
2021/07/08 08:04:43;;;;;;;7.13;4.72;;;;;;;;;;5130123;27;20658;-66
2021/07/08 08:09:58;;;;;;;5.55;4.40;;;;;;;;;;5130335;27;20192;-65
2021/07/08 08:12:27;;;;;;;7.18;4.70;;;;;;;;;;5133850;27;20204;-67
2021/07/08 08:14:56;;;;;;;6.82;5.03;;;;;;;;;;5133456;27;20237;-65
2021/07/08 08:17:24;;;;;;;5.72;5.13;;;;;;;;;;5133378;27;20222;-65
2021/07/08 08:20:12;;;;;;;8.38;4.88;;;;;;;;;;5133639;27;20265;-66
2021/07/08 08:22:41;;;;;;;5.60;4.63;;;;;;;;;;5133928;28;20202;-66
2021/07/08 08:25:11;;;;;;;8.55;5.47;;;;;;;;;;5133383;28;20559;-66
2021/07/08 08:27:39;;;;;;;6.78;5.00;;;;;;;;;;5133339;28;20203;-66
2021/07/08 08:30:11;;;;;;;5.93;4.38;;;;;;;;;;5133273;28;20218;-66
2021/07/08 08:32:39;;;;;;;7.65;5.00;;;;;;;;;;5133348;28;20231;-66
2021/07/08 08:35:08;;;;;;;6.88;4.78;;;;;;;;;;5132991;28;20657;-69
2021/07/08 08:37:36;;;;;;;6.10;5.50;;;;;;;;;;5132818;28;20220;-66
2021/07/08 08:40:06;;;;;;;8.45;4.95;;;;;;;;;;5132947;28;20741;-69
2021/07/08 08:42:34;;;;;;;6.07;5.43;;;;;;;;;;5133903;28;20194;-68
2021/07/08 08:45:03;;;;;;;5.68;5.18;;;;;;;;;;5133070;28;20194;-65
2021/07/08 08:47:32;;;;;;;7.45;6.03;;;;;;;;;;5133343;28;20572;-66
2021/07/08 08:50:01;;;;;;;7.00;5.95;;;;;;;;;;5133125;28;20234;-65
2021/07/08 08:52:30;;;;;;;6.55;5.60;;;;;;;;;;5133413;28;20194;-66
2021/07/08 08:54:58;;;;;;;6.82;6.18;;;;;;;;;;5133145;28;20289;-65
2021/07/08 08:57:26;;;;;;;6.43;5.05;;;;;;;;;;5133052;28;20559;-66
2021/07/08 08:59:54;;;;;;;5.95;5.35;;;;;;;;;;5133320;27;20203;-66
2021/07/08 09:02:22;;;;;;;7.57;5.88;;;;;;;;;;5137108;27;20201;-66
2021/07/08 09:04:52;;;;;;;8.85;6.55;;;;;;;;;;5137306;27;20312;-66
2021/07/08 09:07:21;;;;;;;8.05;6.20;;;;;;;;;;5136942;27;20287;-66
2021/07/08 09:09:49;;;;;;;7.35;5.22;;;;;;;;;;5136718;27;20245;-65
2021/07/08 09:12:18;;;;;;;7.85;6.07;;;;;;;;;;5136566;27;20207;-66
2021/07/08 09:14:47;;;;;;;7.18;6.47;;;;;;;;;;5136003;27;20190;-66
2021/07/08 09:17:18;;;;;;;6.60;5.85;;;;;;;;;;5136586;27;20309;-67
2021/07/08 09:19:47;;;;;;;9.38;6.57;;;;;;;;;;5136771;27;20533;-66
2021/07/08 09:22:29;;;;;;;6.13;5.57;;;;;;;;;;5137175;27;20224;-66
2021/07/08 09:24:57;;;;;;;10.65;6.28;;;;;;;;;;5136764;27;20186;-66
2021/07/08 09:27:26;;;;;;;8.93;7.38;;;;;;;;;;5136944;27;20283;-66
2021/07/08 09:29:55;;;;;;;8.35;7.57;;;;;;;;;;5136764;27;20614;-66
2021/07/08 09:32:24;;;;;;;9.52;7.40;;;;;;;;;;5136420;27;20652;-66
2021/07/08 09:34:53;;;;;;;15.10;8.52;;;;;;;;;;5136978;27;20222;-66
2021/07/08 09:37:22;;;;;;;9.93;7.38;;;;;;;;;;5143248;27;20242;-65
2021/07/08 09:39:52;;;;;;;12.85;7.85;;;;;;;;;;5143041;27;20289;-66
2021/07/08 09:42:33;;;;;;;14.07;8.20;;;;;;;;;;5139969;27;20265;-67
2021/07/08 09:45:06;;;;;;;10.25;7.30;;;;;;;;;;5134260;27;20190;-66
2021/07/08 09:47:34;;;;;;;11.57;7.82;;;;;;;;;;5133605;27;20197;-67
2021/07/08 09:50:02;;;;;;;12.75;7.85;;;;;;;;;;5135764;27;20227;-66
2021/07/08 09:52:32;;;;;;;10.98;7.47;;;;;;;;;;5128011;27;20286;-65
2021/07/08 09:55:12;;;;;;;10.85;8.50;;;;;;;;;;5135923;27;20230;-66
2021/07/08 09:57:45;;;;;;;11.13;6.93;;;;;;;;;;5134254;27;20202;-66
2021/07/08 10:00:32;;;;;;;8.23;6.22;;;;;;;;;;5135248;27;20205;-67
2021/07/08 10:03:00;;;;;;;9.10;6.50;;;;;;;;;;5115587;28;20187;-68
2021/07/08 10:05:30;;;;;;;8.25;6.57;;;;;;;;;;5130118;27;20203;-66
2021/07/08 10:07:59;;;;;;;7.85;6.38;;;;;;;;;;5135462;27;20187;-66
2021/07/08 10:10:29;;;;;;;8.50;7.70;;;;;;;;;;5134951;27;20199;-66
2021/07/08 10:12:57;;;;;;;10.43;8.50;;;;;;;;;;5133726;27;20213;-66
2021/07/08 10:15:26;;;;;;;9.93;8.40;;;;;;;;;;5134903;27;20248;-66
2021/07/08 10:17:54;;;;;;;9.25;7.82;;;;;;;;;;5134818;27;20214;-66
2021/07/08 10:20:23;;;;;;;8.88;7.53;;;;;;;;;;5135178;27;20190;-65
2021/07/08 10:22:51;;;;;;;9.90;8.15;;;;;;;;;;5135251;27;20244;-66
2021/07/08 10:25:19;;;;;;;9.38;8.48;;;;;;;;;;5134982;27;20222;-66
2021/07/08 10:27:49;;;;;;;9.52;8.63;;;;;;;;;;5135235;27;20214;-66
2021/07/08 10:30:21;;;;;;;8.98;8.07;;;;;;;;;;5134893;27;20290;-67
2021/07/08 10:32:54;;;;;;;11.80;8.45;;;;;;;;;;5134955;27;20183;-67
2021/07/08 10:35:38;;;;;;;8.07;7.40;;;;;;;;;;5135159;27;20183;-66
2021/07/08 10:38:21;;;;;;;7.80;7.05;;;;;;;;;;5132656;27;20298;-67
2021/07/08 10:40:49;;;;;;;9.38;7.35;;;;;;;;;;5130922;27;20197;-66
2021/07/08 10:43:19;;;;;;;9.55;6.65;;;;;;;;;;5132450;27;20273;-66
2021/07/08 10:45:48;;;;;;;7.00;6.30;;;;;;;;;;5134871;27;20266;-67
2021/07/08 10:48:19;;;;;;;9.75;6.13;;;;;;;;;;5134610;27;20187;-66
2021/07/08 10:50:48;;;;;;;6.72;6.03;;;;;;;;;;5128765;27;20226;-65
2021/07/08 10:53:21;;;;;;;6.30;5.68;;;;;;;;;;5120983;27;20192;-67
2021/07/08 10:55:49;;;;;;;6.45;5.95;;;;;;;;;;5123982;27;20226;-67
2021/07/08 10:58:39;;;;;;;8.00;6.95;;;;;;;;;;5121027;27;20207;-66
2021/07/08 11:01:07;;;;;;;6.07;5.47;;;;;;;;;;5123672;27;20194;-66
2021/07/08 11:03:46;;;;;;;5.80;5.20;;;;;;;;;;5120252;27;20260;-66
2021/07/08 11:06:19;;;;;;;6.80;6.10;;;;;;;;;;5123556;27;20249;-66
2021/07/08 11:09:00;;;;;;;6.93;5.82;;;;;;;;;;5121103;27;20229;-64
2021/07/08 11:11:48;;;;;;;7.20;5.82;;;;;;;;;;5123609;27;20187;-64
2021/07/08 11:14:27;;;;;;;5.57;4.95;;;;;;;;;;5120444;27;20538;-64
2021/07/08 11:16:58;;;;;;;6.05;5.50;;;;;;;;;;5122030;27;20281;-64
2021/07/08 11:19:35;;;;;;;6.47;5.70;;;;;;;;;;5124939;27;20609;-63
2021/07/08 11:22:06;;;;;;;7.75;5.70;;;;;;;;;;5122032;27;20195;-64
2021/07/08 11:24:46;;;;;;;6.00;5.40;;;;;;;;;;5116909;27;20180;-64
2021/07/08 11:27:16;;;;;;;6.00;5.40;;;;;;;;;;5120773;27;20183;-64
2021/07/08 11:29:47;;;;;;;6.25;5.72;;;;;;;;;;5123080;27;20183;-64
2021/07/08 11:32:18;;;;;;;6.80;5.88;;;;;;;;;;5120861;27;20180;-64
2021/07/08 11:34:57;;;;;;;7.28;5.07;;;;;;;;;;5128239;27;20706;-64
2021/07/08 11:37:28;;;;;;;4.88;4.47;;;;;;;;;;5133869;27;20231;-64
2021/07/08 11:39:57;;;;;;;5.47;4.97;;;;;;;;;;5120382;27;20552;-64
2021/07/08 11:42:27;;;;;;;5.68;4.20;;;;;;;;;;5121645;27;20191;-64
2021/07/08 11:44:56;;;;;;;7.15;4.45;;;;;;;;;;5115380;27;20558;-63
2021/07/08 11:47:24;;;;;;;6.00;4.18;;;;;;;;;;5113553;28;20211;-65
2021/07/08 11:49:52;;;;;;;4.85;4.25;;;;;;;;;;5118377;27;20222;-64
2021/07/08 11:52:22;;;;;;;4.95;4.45;;;;;;;;;;5133592;27;20535;-64
2021/07/08 11:55:00;;;;;;;4.00;3.58;;;;;;;;;;5134143;27;20631;-64
2021/07/08 11:57:49;;;;;;;4.25;3.90;;;;;;;;;;5134090;27;20251;-64
2021/07/08 12:00:28;;;;;;;4.20;3.80;;;;;;;;;;5133592;27;20175;-67
2021/07/08 12:02:56;;;;;;;3.70;3.33;;;;;;;;;;5133947;27;20214;-67
2021/07/08 12:05:24;;;;;;;3.70;3.40;;;;;;;;;;5133720;27;20544;-66
2021/07/08 12:07:56;;;;;;;3.50;3.20;;;;;;;;;;5133241;27;20217;-67
2021/07/08 12:10:24;;;;;;;3.65;3.35;;;;;;;;;;5132368;27;20262;-67
2021/07/08 12:12:55;;;;;;;3.55;3.25;;;;;;;;;;5133665;27;20229;-67
2021/07/08 12:15:23;;;;;;;3.55;3.25;;;;;;;;;;5131209;27;20215;-68
2021/07/08 12:17:55;;;;;;;3.72;3.42;;;;;;;;;;5133143;27;20201;-67
2021/07/08 12:20:23;;;;;;;3.20;3.00;;;;;;;;;;5133980;27;20646;-67
2021/07/08 12:22:55;;;;;;;3.47;3.17;;;;;;;;;;5133211;27;20208;-67
2021/07/08 12:25:24;;;;;;;7.53;3.72;;;;;;;;;;5133995;28;20208;-66
2021/07/08 12:27:52;;;;;;;3.78;3.55;;;;;;;;;;5133731;28;20245;-67
2021/07/08 12:30:23;;;;;;;4.00;3.60;;;;;;;;;;5133300;28;20666;-66
2021/07/08 12:33:05;;;;;;;3.78;3.47;;;;;;;;;;5133225;28;20229;-68
2021/07/08 12:35:44;;;;;;;4.10;3.70;;;;;;;;;;5134527;27;20293;-68
2021/07/08 12:38:14;;;;;;;3.60;3.30;;;;;;;;;;5137380;27;20237;-67
2021/07/08 12:40:42;;;;;;;5.95;3.80;;;;;;;;;;5137869;27;20199;-67
2021/07/08 12:43:12;;;;;;;5.65;3.75;;;;;;;;;;5137521;27;20217;-66
2021/07/08 12:45:41;;;;;;;4.43;4.03;;;;;;;;;;5137657;27;20198;-67
2021/07/08 12:48:11;;;;;;;6.10;4.35;;;;;;;;;;5137306;27;20252;-67
2021/07/08 12:50:42;;;;;;;4.30;3.97;;;;;;;;;;5137125;27;20243;-67
2021/07/08 12:53:12;;;;;;;4.30;4.00;;;;;;;;;;5137314;27;20289;-66
2021/07/08 12:55:42;;;;;;;5.03;4.63;;;;;;;;;;5137662;27;20182;-66
2021/07/08 12:58:11;;;;;;;7.50;5.00;;;;;;;;;;5138168;27;20200;-68
2021/07/08 13:00:39;;;;;;;6.72;4.30;;;;;;;;;;5139350;27;20234;-66
2021/07/08 13:03:08;;;;;;;4.35;3.95;;;;;;;;;;5137603;27;20201;-66
2021/07/08 13:05:41;;;;;;;4.50;4.05;;;;;;;;;;5137501;27;20249;-67
2021/07/08 13:08:10;;;;;;;6.18;4.40;;;;;;;;;;5136901;27;20248;-67
2021/07/08 13:10:42;;;;;;;4.80;4.40;;;;;;;;;;5136942;27;20722;-66
2021/07/08 13:13:12;;;;;;;4.93;4.53;;;;;;;;;;5137277;27;20609;-67
2021/07/08 13:15:46;;;;;;;3.97;3.67;;;;;;;;;;5136862;27;20230;-67
2021/07/08 13:18:15;;;;;;;4.93;4.45;;;;;;;;;;5136974;27;20212;-67
2021/07/08 13:20:47;;;;;;;4.53;4.13;;;;;;;;;;5136706;27;20416;-67
2021/07/08 13:23:16;;;;;;;3.90;3.40;;;;;;;;;;5136809;27;20214;-67
2021/07/08 13:25:45;;;;;;;3.83;3.47;;;;;;;;;;5136738;27;20768;-66
2021/07/08 13:28:24;;;;;;;3.97;3.63;;;;;;;;;;5136584;27;20297;-66
2021/07/08 13:31:05;;;;;;;4.53;3.20;;;;;;;;;;5136434;27;20232;-66
2021/07/08 13:33:35;;;;;;;4.53;3.80;;;;;;;;;;5136869;27;20252;-66
2021/07/08 13:36:09;;;;;;;4.55;4.15;;;;;;;;;;5136539;27;20252;-66
2021/07/08 13:38:37;;;;;;;4.55;3.92;;;;;;;;;;5136701;27;20223;-66
2021/07/08 13:41:07;;;;;;;5.72;4.68;;;;;;;;;;5136605;27;20329;-68
2021/07/08 13:43:40;;;;;;;4.72;4.32;;;;;;;;;;5119585;27;20200;-67
2021/07/08 13:46:12;;;;;;;5.60;4.03;;;;;;;;;;5115624;28;20226;-66
2021/07/08 13:48:41;;;;;;;4.55;4.15;;;;;;;;;;5136194;27;20290;-66
2021/07/08 13:51:11;;;;;;;5.20;4.70;;;;;;;;;;5135861;27;20314;-67
2021/07/08 13:53:39;;;;;;;4.57;4.03;;;;;;;;;;5136095;27;20549;-67
2021/07/08 13:56:14;;;;;;;4.55;4.25;;;;;;;;;;5136348;27;20263;-67
2021/07/08 13:58:43;;;;;;;4.40;4.10;;;;;;;;;;5135918;27;20281;-66
2021/07/08 14:01:11;;;;;;;4.45;4.05;;;;;;;;;;5136259;27;20234;-67
2021/07/08 14:03:40;;;;;;;4.65;3.72;;;;;;;;;;5136185;27;20206;-66
2021/07/08 14:06:08;;;;;;;4.18;3.80;;;;;;;;;;5115315;28;20198;-67
2021/07/08 14:08:39;;;;;;;4.60;4.20;;;;;;;;;;5115432;28;20631;-67
2021/07/08 14:11:07;;;;;;;4.53;4.13;;;;;;;;;;5115085;28;20222;-66
2021/07/08 14:13:36;;;;;;;4.93;4.50;;;;;;;;;;5114917;28;20209;-67
2021/07/08 14:16:05;;;;;;;4.55;4.13;;;;;;;;;;5115272;28;20203;-66
2021/07/08 14:18:33;;;;;;;4.60;4.10;;;;;;;;;;5133969;27;20237;-67
2021/07/08 14:21:02;;;;;;;5.55;4.50;;;;;;;;;;5135218;27;20709;-66
2021/07/08 14:23:31;;;;;;;5.18;4.72;;;;;;;;;;5135899;27;20222;-66
2021/07/08 14:26:04;;;;;;;5.05;4.60;;;;;;;;;;5135892;27;20191;-69
2021/07/08 14:28:32;;;;;;;5.15;4.65;;;;;;;;;;5140223;27;20270;-67
2021/07/08 14:31:00;;;;;;;6.50;4.70;;;;;;;;;;5144777;27;20285;-66
2021/07/08 14:33:30;;;;;;;4.13;3.83;;;;;;;;;;5145100;27;20299;-67
2021/07/08 14:35:59;;;;;;;5.28;4.88;;;;;;;;;;5136109;27;20222;-67
2021/07/08 14:38:27;;;;;;;5.57;4.60;;;;;;;;;;5135459;27;20233;-66
2021/07/08 14:40:55;;;;;;;4.97;4.47;;;;;;;;;;5135355;27;20218;-66
2021/07/08 14:43:35;;;;;;;8.05;5.65;;;;;;;;;;5130472;27;20201;-66
2021/07/08 14:46:05;;;;;;;4.70;4.30;;;;;;;;;;5114564;28;20187;-66
2021/07/08 14:48:33;;;;;;;4.97;4.32;;;;;;;;;;5133684;27;20293;-67
2021/07/08 14:51:02;;;;;;;4.38;3.97;;;;;;;;;;5134543;27;20715;-68
2021/07/08 14:53:30;;;;;;;4.68;3.85;;;;;;;;;;5134925;27;20297;-67
2021/07/08 14:55:59;;;;;;;4.15;3.72;;;;;;;;;;5135108;27;20230;-66
2021/07/08 14:58:28;;;;;;;3.92;3.63;;;;;;;;;;5134144;27;20246;-66
2021/07/08 15:00:56;;;;;;;4.35;4.05;;;;;;;;;;5134614;27;20305;-67